Time;durP1;ratioP1;P1;durP2;ratioP2;P2;SDS_P1;SDS_P2;PMS_P1;PMS_P2;Temp;Humidity;BMP_temperature;BMP_pressure;BME280_temperature;BME280_humidity;BME280_pressure;Samples;Min_cycle;Max_cycle;Signal;HPM_P1;HPM_P2
2021/11/23 00:00:30;;;;;;;11.60;9.48;;;;;;;;;;5084273;28;20396;-85
2021/11/23 00:02:56;;;;;;;11.45;9.02;;;;;;;;;;5083711;28;20400;-85
2021/11/23 00:05:23;;;;;;;12.18;9.70;;;;;;;;;;5078439;28;20477;-85
2021/11/23 00:07:50;;;;;;;11.10;9.20;;;;;;;;;;5084540;28;20400;-85
2021/11/23 00:10:17;;;;;;;10.50;8.55;;;;;;;;;;5083891;28;20954;-85
2021/11/23 00:12:45;;;;;;;10.70;8.80;;;;;;;;;;5081415;28;20898;-84
2021/11/23 00:15:12;;;;;;;10.02;8.48;;;;;;;;;;5082126;28;20396;-85
2021/11/23 00:17:39;;;;;;;11.38;9.10;;;;;;;;;;5084142;28;20401;-84
2021/11/23 00:20:08;;;;;;;9.48;8.10;;;;;;;;;;5079052;28;20955;-85
2021/11/23 00:22:35;;;;;;;10.13;8.70;;;;;;;;;;5081885;28;20439;-85
2021/11/23 00:25:04;;;;;;;10.75;9.10;;;;;;;;;;5083739;28;20948;-85
2021/11/23 00:27:31;;;;;;;11.23;8.63;;;;;;;;;;5083458;28;20403;-84
2021/11/23 00:30:01;;;;;;;9.95;8.27;;;;;;;;;;5084201;28;20831;-84
2021/11/23 00:32:27;;;;;;;10.32;8.38;;;;;;;;;;5083496;28;20496;-85
2021/11/23 00:34:54;;;;;;;9.15;8.15;;;;;;;;;;5078475;28;20465;-85
2021/11/23 00:37:21;;;;;;;12.17;8.80;;;;;;;;;;5080885;28;20402;-85
2021/11/23 00:39:48;;;;;;;10.73;8.10;;;;;;;;;;5084062;28;20401;-83
2021/11/23 00:42:15;;;;;;;9.40;7.80;;;;;;;;;;5083550;28;20465;-85
2021/11/23 00:44:42;;;;;;;10.98;8.57;;;;;;;;;;5083545;28;20424;-85
2021/11/23 00:47:10;;;;;;;11.10;8.02;;;;;;;;;;5080403;28;20757;-85
2021/11/23 00:49:37;;;;;;;10.52;8.27;;;;;;;;;;5078543;28;20431;-85
2021/11/23 00:52:04;;;;;;;11.13;8.23;;;;;;;;;;5080719;28;20407;-84
2021/11/23 00:54:31;;;;;;;9.65;7.97;;;;;;;;;;5082688;28;20443;-84
2021/11/23 00:56:58;;;;;;;9.55;7.95;;;;;;;;;;5081861;28;20396;-85
2021/11/23 00:59:25;;;;;;;10.27;7.78;;;;;;;;;;5083525;28;20942;-84
2021/11/23 01:01:51;;;;;;;10.48;7.75;;;;;;;;;;5079685;28;20404;-85
2021/11/23 01:04:20;;;;;;;9.18;7.50;;;;;;;;;;5078405;28;20412;-84
2021/11/23 01:06:49;;;;;;;12.32;7.82;;;;;;;;;;5081830;28;20439;-85
2021/11/23 01:09:16;;;;;;;10.13;7.72;;;;;;;;;;5076215;28;20443;-85
2021/11/23 01:11:43;;;;;;;9.13;7.53;;;;;;;;;;5079131;28;20437;-84
2021/11/23 01:14:10;;;;;;;10.23;7.72;;;;;;;;;;5079467;28;20466;-84
2021/11/23 01:16:37;;;;;;;10.50;7.57;;;;;;;;;;5079962;28;20408;-85
2021/11/23 01:19:04;;;;;;;10.45;7.75;;;;;;;;;;5080431;28;20773;-85
2021/11/23 01:21:33;;;;;;;9.07;7.38;;;;;;;;;;5079974;28;20483;-85
2021/11/23 01:24:01;;;;;;;9.52;7.50;;;;;;;;;;5081854;28;20522;-85
2021/11/23 01:26:27;;;;;;;10.85;7.78;;;;;;;;;;5079653;28;20405;-85
2021/11/23 01:28:54;;;;;;;8.82;7.45;;;;;;;;;;5082042;28;20466;-85
2021/11/23 01:31:21;;;;;;;10.82;8.02;;;;;;;;;;5082735;28;20465;-85
2021/11/23 01:33:48;;;;;;;10.40;7.43;;;;;;;;;;5078160;28;20408;-84
2021/11/23 01:36:15;;;;;;;10.17;7.70;;;;;;;;;;5083632;28;20400;-85
2021/11/23 01:38:43;;;;;;;9.05;7.18;;;;;;;;;;5079858;28;20497;-85
2021/11/23 01:41:10;;;;;;;8.93;7.40;;;;;;;;;;5082999;28;20419;-83
2021/11/23 01:43:37;;;;;;;10.10;7.60;;;;;;;;;;5079747;28;20466;-85
2021/11/23 01:46:05;;;;;;;9.75;7.35;;;;;;;;;;5078063;28;20809;-85
2021/11/23 01:48:32;;;;;;;9.65;7.38;;;;;;;;;;5078409;28;20899;-85
2021/11/23 01:50:59;;;;;;;9.43;7.40;;;;;;;;;;5078341;28;20438;-84
2021/11/23 01:53:26;;;;;;;8.82;7.18;;;;;;;;;;5080309;28;20876;-85
2021/11/23 01:55:55;;;;;;;10.33;7.80;;;;;;;;;;5080507;28;20404;-85
2021/11/23 01:58:22;;;;;;;10.75;7.07;;;;;;;;;;5079589;28;20726;-85
2021/11/23 02:00:49;;;;;;;9.35;7.40;;;;;;;;;;5083341;28;20404;-85
2021/11/23 02:03:17;;;;;;;8.77;6.93;;;;;;;;;;5079965;28;20404;-84
2021/11/23 02:05:45;;;;;;;8.90;7.32;;;;;;;;;;5081428;28;20427;-84
2021/11/23 02:08:12;;;;;;;9.82;6.57;;;;;;;;;;5077008;28;20404;-85
2021/11/23 02:10:39;;;;;;;8.23;6.60;;;;;;;;;;5081954;28;20462;-85
2021/11/23 02:13:08;;;;;;;9.07;6.68;;;;;;;;;;5078629;28;20450;-85
2021/11/23 02:15:35;;;;;;;8.05;7.05;;;;;;;;;;5083036;28;20473;-85
2021/11/23 02:18:13;;;;;;;9.33;7.17;;;;;;;;;;5084286;28;20446;-85
2021/11/23 02:20:43;;;;;;;9.23;7.55;;;;;;;;;;5083998;28;20504;-85
2021/11/23 02:23:10;;;;;;;8.10;6.88;;;;;;;;;;5086553;28;20412;-85
2021/11/23 02:25:37;;;;;;;8.82;6.70;;;;;;;;;;5083587;28;20434;-85
2021/11/23 02:28:07;;;;;;;8.43;6.90;;;;;;;;;;5086817;28;20400;-85
2021/11/23 02:30:38;;;;;;;7.78;6.38;;;;;;;;;;5083608;28;20507;-85
2021/11/23 02:33:05;;;;;;;8.20;6.80;;;;;;;;;;5085644;28;20479;-85
2021/11/23 02:35:33;;;;;;;8.65;6.40;;;;;;;;;;5081761;28;20834;-85
2021/11/23 02:38:01;;;;;;;7.60;6.15;;;;;;;;;;5083830;28;20392;-85
2021/11/23 02:40:29;;;;;;;7.53;6.60;;;;;;;;;;5085767;28;20453;-85
2021/11/23 02:42:56;;;;;;;8.95;6.32;;;;;;;;;;5079997;28;20392;-85
2021/11/23 02:45:25;;;;;;;9.18;6.57;;;;;;;;;;5085516;28;20458;-85
2021/11/23 02:47:53;;;;;;;8.07;6.75;;;;;;;;;;5078684;28;20461;-85
2021/11/23 02:50:21;;;;;;;8.57;6.75;;;;;;;;;;5082565;28;20450;-84
2021/11/23 02:52:50;;;;;;;7.63;6.28;;;;;;;;;;5081020;28;20453;-84
2021/11/23 02:55:20;;;;;;;8.23;6.13;;;;;;;;;;5082957;28;20436;-84
2021/11/23 02:57:46;;;;;;;8.17;6.50;;;;;;;;;;5081656;28;20409;-84
2021/11/23 03:00:16;;;;;;;8.50;6.47;;;;;;;;;;5081216;28;20458;-84
2021/11/23 03:02:44;;;;;;;7.78;6.30;;;;;;;;;;5083604;28;20413;-85
2021/11/23 03:05:11;;;;;;;7.95;6.43;;;;;;;;;;5083975;28;20473;-85
2021/11/23 03:07:38;;;;;;;8.30;6.07;;;;;;;;;;5086275;28;20405;-85
2021/11/23 03:10:08;;;;;;;7.45;5.85;;;;;;;;;;5086036;28;20418;-85
2021/11/23 03:12:37;;;;;;;7.20;5.60;;;;;;;;;;5086209;28;20404;-85
2021/11/23 03:15:05;;;;;;;6.63;5.40;;;;;;;;;;5086015;28;20458;-85
2021/11/23 03:17:32;;;;;;;6.78;5.20;;;;;;;;;;5085695;28;20420;-85
2021/11/23 03:19:58;;;;;;;7.27;5.30;;;;;;;;;;5083380;28;20426;-85
2021/11/23 03:22:25;;;;;;;6.90;5.07;;;;;;;;;;5085869;28;20409;-85
2021/11/23 03:24:53;;;;;;;5.03;4.50;;;;;;;;;;5084091;28;20432;-84
2021/11/23 03:27:19;;;;;;;5.40;4.53;;;;;;;;;;5081058;28;20834;-84
2021/11/23 03:29:48;;;;;;;5.78;5.00;;;;;;;;;;5085944;28;20400;-85
2021/11/23 03:32:15;;;;;;;6.53;4.68;;;;;;;;;;5085553;28;20409;-84
2021/11/23 03:34:43;;;;;;;6.80;4.47;;;;;;;;;;5081577;28;20416;-85
2021/11/23 03:37:12;;;;;;;6.38;4.55;;;;;;;;;;5084716;28;20404;-85
2021/11/23 03:39:39;;;;;;;5.55;4.43;;;;;;;;;;5085672;28;21111;-84
2021/11/23 03:42:07;;;;;;;5.75;4.80;;;;;;;;;;5083680;28;20442;-85
2021/11/23 03:44:35;;;;;;;5.40;4.55;;;;;;;;;;5081201;28;20419;-85
2021/11/23 03:47:05;;;;;;;5.43;4.53;;;;;;;;;;5083462;28;20409;-85
2021/11/23 03:49:32;;;;;;;5.63;4.72;;;;;;;;;;5083354;28;20407;-84
2021/11/23 03:51:59;;;;;;;6.33;4.30;;;;;;;;;;5084862;28;20408;-85
2021/11/23 03:54:26;;;;;;;5.57;4.20;;;;;;;;;;5084914;28;20521;-85
2021/11/23 03:56:53;;;;;;;6.07;4.57;;;;;;;;;;5085331;28;20405;-85
2021/11/23 03:59:20;;;;;;;6.18;4.50;;;;;;;;;;5084814;28;20453;-85
2021/11/23 04:01:47;;;;;;;5.80;4.70;;;;;;;;;;5086647;28;20416;-85
2021/11/23 04:04:16;;;;;;;5.78;4.50;;;;;;;;;;5084518;28;20828;-85
2021/11/23 04:06:43;;;;;;;6.07;4.60;;;;;;;;;;5080837;28;20411;-85
2021/11/23 04:09:10;;;;;;;5.07;4.20;;;;;;;;;;5084777;28;20454;-85
2021/11/23 04:11:36;;;;;;;4.70;4.10;;;;;;;;;;5083755;28;20411;-84
2021/11/23 04:14:04;;;;;;;6.25;4.70;;;;;;;;;;5085039;28;20404;-85
2021/11/23 04:16:31;;;;;;;6.33;4.40;;;;;;;;;;5084045;28;20461;-85
2021/11/23 04:18:57;;;;;;;5.72;4.55;;;;;;;;;;5083028;28;20410;-85
2021/11/23 04:21:26;;;;;;;6.00;4.20;;;;;;;;;;5084409;28;20469;-85
2021/11/23 04:23:53;;;;;;;5.88;4.20;;;;;;;;;;5084786;28;20400;-84
2021/11/23 04:26:20;;;;;;;5.85;4.70;;;;;;;;;;5081243;28;20424;-85
2021/11/23 04:28:47;;;;;;;5.40;4.40;;;;;;;;;;5084651;28;20733;-85
2021/11/23 04:31:13;;;;;;;5.57;4.68;;;;;;;;;;5080841;28;20400;-83
2021/11/23 04:33:40;;;;;;;7.53;4.68;;;;;;;;;;5082033;28;20880;-84
2021/11/23 04:36:07;;;;;;;6.30;4.40;;;;;;;;;;5081097;28;20486;-85
2021/11/23 04:38:36;;;;;;;5.65;4.55;;;;;;;;;;5083884;28;20416;-85
2021/11/23 04:41:03;;;;;;;5.93;4.70;;;;;;;;;;5084527;28;20400;-85
2021/11/23 04:43:30;;;;;;;5.53;4.63;;;;;;;;;;5083947;28;20396;-85
2021/11/23 04:45:58;;;;;;;6.22;4.60;;;;;;;;;;5084083;28;20986;-85
2021/11/23 04:48:25;;;;;;;5.32;4.68;;;;;;;;;;5083153;28;20487;-85
2021/11/23 04:50:53;;;;;;;5.65;4.60;;;;;;;;;;5081923;28;20466;-84
2021/11/23 04:53:20;;;;;;;6.13;4.25;;;;;;;;;;5083660;28;20420;-84
2021/11/23 04:55:48;;;;;;;5.80;4.57;;;;;;;;;;5083952;28;20896;-85
2021/11/23 04:58:15;;;;;;;6.03;4.63;;;;;;;;;;5086589;23;20467;-84
2021/11/23 05:00:42;;;;;;;4.90;3.97;;;;;;;;;;5063417;28;20413;-84
2021/11/23 05:03:09;;;;;;;6.60;4.68;;;;;;;;;;5060596;28;20438;-84
2021/11/23 05:05:36;;;;;;;6.87;4.80;;;;;;;;;;5058336;28;20422;-84
2021/11/23 05:08:03;;;;;;;7.18;4.72;;;;;;;;;;5062050;28;20889;-84
2021/11/23 05:10:30;;;;;;;6.85;4.97;;;;;;;;;;5062305;28;20403;-84
2021/11/23 05:12:58;;;;;;;6.80;4.90;;;;;;;;;;5063051;28;20414;-84
2021/11/23 05:15:25;;;;;;;6.55;4.55;;;;;;;;;;5061635;28;20446;-84
2021/11/23 05:17:52;;;;;;;6.18;4.55;;;;;;;;;;5063077;28;20413;-84
2021/11/23 05:20:18;;;;;;;6.32;4.22;;;;;;;;;;5060638;28;20832;-84
2021/11/23 05:22:45;;;;;;;6.85;4.43;;;;;;;;;;5062809;28;20786;-84
2021/11/23 05:25:12;;;;;;;6.07;4.43;;;;;;;;;;5058273;28;20421;-84
2021/11/23 05:27:41;;;;;;;5.68;4.43;;;;;;;;;;5062219;28;20413;-84
2021/11/23 05:30:12;;;;;;;5.43;4.18;;;;;;;;;;5062599;28;20452;-84
2021/11/23 05:32:39;;;;;;;7.32;4.00;;;;;;;;;;5060201;28;20394;-84
2021/11/23 05:35:06;;;;;;;4.97;3.97;;;;;;;;;;5059614;28;20490;-84
2021/11/23 05:37:33;;;;;;;5.13;4.03;;;;;;;;;;5061029;28;20432;-84
2021/11/23 05:40:00;;;;;;;5.82;4.13;;;;;;;;;;5062524;28;20402;-84
2021/11/23 05:42:27;;;;;;;5.63;4.30;;;;;;;;;;5062408;28;20410;-84
2021/11/23 05:44:54;;;;;;;5.13;4.20;;;;;;;;;;5062694;28;20920;-83
2021/11/23 05:47:22;;;;;;;6.78;4.30;;;;;;;;;;5062408;28;20397;-83
2021/11/23 05:49:49;;;;;;;5.72;4.05;;;;;;;;;;5060502;28;21225;-83
2021/11/23 05:52:17;;;;;;;7.22;4.40;;;;;;;;;;5064606;28;20441;-83
2021/11/23 05:54:46;;;;;;;5.43;4.25;;;;;;;;;;5063674;28;20485;-84
2021/11/23 05:57:13;;;;;;;6.18;4.47;;;;;;;;;;5063427;28;20427;-84
2021/11/23 05:59:40;;;;;;;6.82;4.82;;;;;;;;;;5065900;28;20470;-82
2021/11/23 06:02:08;;;;;;;6.80;4.65;;;;;;;;;;5065888;28;20410;-83
2021/11/23 06:04:36;;;;;;;6.63;4.47;;;;;;;;;;5062850;28;20456;-84
2021/11/23 06:07:03;;;;;;;5.90;4.53;;;;;;;;;;5059373;28;20541;-84
2021/11/23 06:09:30;;;;;;;7.30;4.50;;;;;;;;;;5064125;28;20452;-84
2021/11/23 06:11:57;;;;;;;7.40;4.70;;;;;;;;;;5063369;28;20401;-84
2021/11/23 06:14:24;;;;;;;7.25;4.50;;;;;;;;;;5063579;28;20405;-83
2021/11/23 06:16:51;;;;;;;5.90;4.07;;;;;;;;;;5058268;28;20720;-83
2021/11/23 06:19:19;;;;;;;5.03;4.15;;;;;;;;;;5061924;28;20453;-84
2021/11/23 06:21:48;;;;;;;6.38;4.32;;;;;;;;;;5061207;28;20405;-85
2021/11/23 06:24:15;;;;;;;6.17;4.57;;;;;;;;;;5063489;28;20494;-84
2021/11/23 06:26:42;;;;;;;7.20;4.68;;;;;;;;;;5065847;28;20438;-84
2021/11/23 06:29:09;;;;;;;7.60;5.00;;;;;;;;;;5058206;28;20407;-84
2021/11/23 06:31:36;;;;;;;7.53;4.80;;;;;;;;;;5054412;28;20460;-85
2021/11/23 06:34:07;;;;;;;7.05;5.10;;;;;;;;;;5057500;28;20407;-85
2021/11/23 06:36:35;;;;;;;7.20;5.50;;;;;;;;;;5054971;28;20444;-84
2021/11/23 06:39:04;;;;;;;8.95;6.28;;;;;;;;;;5058829;28;21126;-84
2021/11/23 06:41:32;;;;;;;8.75;6.82;;;;;;;;;;5062064;28;21085;-84
2021/11/23 06:44:02;;;;;;;9.27;6.60;;;;;;;;;;5060098;28;20798;-83
2021/11/23 06:46:29;;;;;;;10.07;7.18;;;;;;;;;;5060542;28;20426;-84
2021/11/23 06:48:56;;;;;;;10.48;7.50;;;;;;;;;;5061098;28;20499;-85
2021/11/23 06:51:23;;;;;;;10.93;7.28;;;;;;;;;;5064727;28;20398;-85
2021/11/23 06:53:50;;;;;;;10.85;7.78;;;;;;;;;;5062508;28;20399;-84
2021/11/23 06:56:18;;;;;;;10.20;7.50;;;;;;;;;;5061626;28;20402;-84
2021/11/23 06:58:45;;;;;;;11.43;7.10;;;;;;;;;;5064039;28;20485;-83
2021/11/23 07:01:12;;;;;;;9.27;7.53;;;;;;;;;;5064724;28;20402;-84
2021/11/23 07:03:39;;;;;;;12.00;8.05;;;;;;;;;;5064357;28;21223;-85
2021/11/23 07:06:06;;;;;;;10.93;7.63;;;;;;;;;;5062375;28;20559;-86
2021/11/23 07:08:33;;;;;;;10.18;8.15;;;;;;;;;;5065769;28;20407;-84
2021/11/23 07:11:00;;;;;;;13.00;8.07;;;;;;;;;;5064793;28;20399;-84
2021/11/23 07:13:28;;;;;;;10.77;7.68;;;;;;;;;;5073227;28;20458;-84
2021/11/23 07:15:55;;;;;;;12.45;7.90;;;;;;;;;;5081535;28;20452;-84
2021/11/23 07:18:22;;;;;;;11.38;8.00;;;;;;;;;;5065437;28;20469;-85
2021/11/23 07:20:49;;;;;;;11.88;8.00;;;;;;;;;;5060016;28;20410;-84
2021/11/23 07:23:16;;;;;;;11.00;7.75;;;;;;;;;;5065617;28;20471;-84
2021/11/23 07:25:42;;;;;;;11.00;7.90;;;;;;;;;;5061922;28;20756;-84
2021/11/23 07:28:10;;;;;;;13.95;8.43;;;;;;;;;;5065234;28;20901;-84
2021/11/23 07:30:38;;;;;;;11.13;7.82;;;;;;;;;;5059327;28;20402;-84
2021/11/23 07:33:06;;;;;;;12.77;8.15;;;;;;;;;;5064211;28;20472;-84
2021/11/23 07:35:32;;;;;;;12.52;8.63;;;;;;;;;;5062254;28;20452;-84
2021/11/23 07:37:59;;;;;;;10.43;8.25;;;;;;;;;;5065082;28;20461;-85
2021/11/23 07:40:27;;;;;;;11.13;8.32;;;;;;;;;;5062332;28;20410;-84
2021/11/23 07:42:54;;;;;;;12.07;8.45;;;;;;;;;;5064829;28;20407;-84
2021/11/23 07:45:21;;;;;;;10.70;8.23;;;;;;;;;;5059143;28;20402;-84
2021/11/23 07:47:49;;;;;;;11.65;8.52;;;;;;;;;;5057091;28;20432;-85
2021/11/23 07:50:16;;;;;;;12.10;8.10;;;;;;;;;;5063057;28;20514;-85
2021/11/23 07:52:46;;;;;;;11.32;8.27;;;;;;;;;;5061104;28;20407;-84
2021/11/23 07:55:13;;;;;;;9.23;7.15;;;;;;;;;;5061252;28;20552;-84
2021/11/23 07:57:40;;;;;;;9.93;7.40;;;;;;;;;;5062575;28;20856;-84
2021/11/23 08:00:08;;;;;;;10.00;6.85;;;;;;;;;;5062984;28;20411;-85
2021/11/23 08:02:35;;;;;;;8.95;7.00;;;;;;;;;;5063364;28;20403;-85
2021/11/23 08:05:04;;;;;;;9.02;6.35;;;;;;;;;;5061989;28;20417;-84
2021/11/23 08:07:31;;;;;;;8.27;6.55;;;;;;;;;;5060819;28;20595;-84
2021/11/23 08:09:57;;;;;;;9.80;6.73;;;;;;;;;;5061769;28;20672;-85
2021/11/23 08:12:24;;;;;;;8.63;6.80;;;;;;;;;;5061879;28;20414;-85
2021/11/23 08:14:51;;;;;;;8.93;6.15;;;;;;;;;;5056818;28;20826;-85
2021/11/23 08:17:18;;;;;;;9.65;6.57;;;;;;;;;;5059996;28;20798;-84
2021/11/23 08:19:45;;;;;;;8.32;6.63;;;;;;;;;;5059891;28;20405;-85
2021/11/23 08:22:13;;;;;;;8.45;6.00;;;;;;;;;;5060734;28;20826;-84
2021/11/23 08:24:40;;;;;;;8.98;6.30;;;;;;;;;;5059670;28;20414;-85
2021/11/23 08:27:07;;;;;;;8.15;6.40;;;;;;;;;;5059702;28;20418;-85
2021/11/23 08:29:34;;;;;;;7.83;6.20;;;;;;;;;;5058313;28;20415;-84
2021/11/23 08:32:01;;;;;;;9.38;6.40;;;;;;;;;;5063834;28;21135;-84
2021/11/23 08:34:28;;;;;;;7.43;5.47;;;;;;;;;;5058142;28;20456;-84
2021/11/23 08:36:55;;;;;;;7.70;5.15;;;;;;;;;;5062685;28;20405;-84
2021/11/23 08:39:24;;;;;;;6.13;4.63;;;;;;;;;;5060058;28;20447;-85
2021/11/23 08:41:52;;;;;;;6.38;4.78;;;;;;;;;;5063592;28;20394;-85
2021/11/23 08:44:19;;;;;;;5.78;4.72;;;;;;;;;;5061601;28;21185;-84
2021/11/23 08:46:46;;;;;;;6.35;4.80;;;;;;;;;;5062831;28;20460;-84
2021/11/23 08:49:13;;;;;;;5.15;4.00;;;;;;;;;;5061013;28;20908;-84
2021/11/23 08:51:41;;;;;;;5.57;3.87;;;;;;;;;;5062864;28;20434;-84
2021/11/23 08:54:08;;;;;;;5.45;3.42;;;;;;;;;;5063253;28;20459;-84
2021/11/23 08:56:38;;;;;;;6.30;3.42;;;;;;;;;;5063535;28;20402;-85
2021/11/23 08:59:09;;;;;;;5.45;3.80;;;;;;;;;;5061735;28;20488;-84
2021/11/23 09:01:36;;;;;;;5.28;3.33;;;;;;;;;;5063403;28;20406;-84
2021/11/23 09:04:04;;;;;;;4.03;3.25;;;;;;;;;;5061850;28;20406;-84
2021/11/23 09:06:33;;;;;;;5.60;3.58;;;;;;;;;;5059436;28;20479;-84
2021/11/23 09:09:02;;;;;;;6.05;3.50;;;;;;;;;;5061633;28;20420;-84
2021/11/23 09:11:30;;;;;;;5.50;3.67;;;;;;;;;;5058989;28;20487;-84
2021/11/23 09:13:58;;;;;;;3.95;3.20;;;;;;;;;;5055544;28;20435;-84
2021/11/23 09:16:25;;;;;;;4.72;3.50;;;;;;;;;;5063161;28;20401;-84
2021/11/23 09:18:52;;;;;;;5.70;3.47;;;;;;;;;;5060728;28;20774;-84
2021/11/23 09:21:19;;;;;;;4.45;3.58;;;;;;;;;;5061057;28;20480;-84
2021/11/23 09:23:46;;;;;;;4.78;3.70;;;;;;;;;;5063223;28;20405;-84
2021/11/23 09:26:13;;;;;;;5.60;3.50;;;;;;;;;;5064082;28;20424;-84
2021/11/23 09:28:40;;;;;;;6.25;3.90;;;;;;;;;;5065393;28;20453;-84
2021/11/23 09:31:09;;;;;;;4.57;3.55;;;;;;;;;;5063981;28;20951;-85
2021/11/23 09:33:35;;;;;;;5.75;3.65;;;;;;;;;;5065161;28;20399;-85
2021/11/23 09:36:02;;;;;;;4.95;3.63;;;;;;;;;;5065001;28;20866;-85
2021/11/23 09:38:29;;;;;;;4.97;3.55;;;;;;;;;;5066896;28;20410;-85
2021/11/23 09:40:56;;;;;;;4.60;3.50;;;;;;;;;;5065489;28;20408;-84
2021/11/23 09:43:23;;;;;;;5.57;4.20;;;;;;;;;;5066637;28;20398;-84
2021/11/23 09:45:50;;;;;;;7.18;3.58;;;;;;;;;;5066151;28;20405;-84
2021/11/23 09:48:20;;;;;;;4.47;3.47;;;;;;;;;;5063212;28;20423;-84
2021/11/23 09:50:48;;;;;;;4.28;3.42;;;;;;;;;;5063021;28;20422;-84
2021/11/23 09:53:17;;;;;;;4.38;3.60;;;;;;;;;;5066874;28;20816;-84
2021/11/23 09:55:44;;;;;;;5.40;3.80;;;;;;;;;;5064138;28;20414;-85
2021/11/23 09:58:11;;;;;;;5.20;3.72;;;;;;;;;;5056468;28;20420;-84
2021/11/23 10:00:40;;;;;;;5.13;3.37;;;;;;;;;;5063512;28;20504;-84
2021/11/23 10:03:13;;;;;;;5.10;3.35;;;;;;;;;;5057107;28;20409;-84
2021/11/23 10:05:42;;;;;;;5.88;3.63;;;;;;;;;;5056774;28;20415;-85
2021/11/23 10:08:12;;;;;;;5.45;3.80;;;;;;;;;;5065786;28;20414;-84
2021/11/23 10:10:49;;;;;;;5.38;3.70;;;;;;;;;;5065431;28;20743;-84
2021/11/23 10:13:16;;;;;;;5.38;3.80;;;;;;;;;;5062757;28;20489;-84
2021/11/23 10:15:46;;;;;;;4.80;3.85;;;;;;;;;;5064784;28;20408;-85
2021/11/23 10:18:15;;;;;;;6.82;4.32;;;;;;;;;;5055810;28;20914;-84
2021/11/23 10:20:46;;;;;;;5.47;3.95;;;;;;;;;;5056293;28;20452;-85
2021/11/23 10:23:17;;;;;;;4.83;3.23;;;;;;;;;;5064689;28;20402;-85
2021/11/23 10:25:44;;;;;;;4.07;3.28;;;;;;;;;;5063029;28;20425;-85
2021/11/23 10:28:12;;;;;;;4.20;3.25;;;;;;;;;;5065809;28;20463;-85
2021/11/23 10:30:40;;;;;;;4.80;3.63;;;;;;;;;;5064576;28;20409;-84
2021/11/23 10:33:08;;;;;;;5.07;3.50;;;;;;;;;;5062925;28;20412;-84
2021/11/23 10:35:39;;;;;;;4.70;3.55;;;;;;;;;;5062540;28;20401;-84
2021/11/23 10:38:08;;;;;;;6.25;3.40;;;;;;;;;;5065453;28;20406;-84
2021/11/23 10:40:37;;;;;;;6.00;3.58;;;;;;;;;;5065676;28;20410;-84
2021/11/23 10:43:06;;;;;;;9.10;3.80;;;;;;;;;;5066202;28;20406;-84
2021/11/23 10:45:37;;;;;;;4.60;3.58;;;;;;;;;;5065822;28;20394;-84
2021/11/23 10:48:07;;;;;;;4.90;3.60;;;;;;;;;;5080862;28;20494;-83
2021/11/23 10:50:36;;;;;;;5.90;3.50;;;;;;;;;;5077712;28;20402;-84
2021/11/23 10:53:08;;;;;;;4.15;3.30;;;;;;;;;;5063773;28;20409;-84
2021/11/23 10:55:37;;;;;;;5.40;3.87;;;;;;;;;;5060355;28;20421;-84
2021/11/23 10:58:06;;;;;;;4.20;3.38;;;;;;;;;;5065405;28;20770;-84
2021/11/23 11:00:36;;;;;;;4.75;4.00;;;;;;;;;;5064568;28;20481;-86
2021/11/23 11:03:03;;;;;;;5.57;3.75;;;;;;;;;;5064322;28;20425;-85
2021/11/23 11:05:32;;;;;;;4.03;3.47;;;;;;;;;;5061947;28;20412;-85
2021/11/23 11:08:00;;;;;;;5.28;3.53;;;;;;;;;;5064612;28;20457;-85
2021/11/23 11:10:30;;;;;;;5.15;4.22;;;;;;;;;;5064597;28;20797;-85
2021/11/23 11:12:58;;;;;;;5.13;3.60;;;;;;;;;;5062320;28;21032;-85
2021/11/23 11:15:31;;;;;;;4.88;3.78;;;;;;;;;;5064927;28;20428;-84
2021/11/23 11:17:59;;;;;;;4.85;3.65;;;;;;;;;;5063998;28;20467;-84
2021/11/23 11:20:38;;;;;;;5.13;3.88;;;;;;;;;;5062657;28;20414;-84
2021/11/23 11:23:07;;;;;;;4.50;3.75;;;;;;;;;;5062639;28;20854;-85
2021/11/23 11:26:14;;;;;;;6.38;3.53;;;;;;;;;;5064527;28;20430;-85
2021/11/23 11:28:50;;;;;;;4.43;3.63;;;;;;;;;;5031980;28;20426;-85
2021/11/23 11:31:42;;;;;;;4.97;4.10;;;;;;;;;;5065243;28;20405;-85
2021/11/23 11:34:27;;;;;;;5.00;4.18;;;;;;;;;;5044238;28;20402;-84
2021/11/23 11:37:10;;;;;;;9.73;3.73;;;;;;;;;;5062404;28;20414;-84
2021/11/23 11:40:03;;;;;;;6.03;4.07;;;;;;;;;;5064224;28;20877;-86
2021/11/23 11:42:55;;;;;;;4.82;3.60;;;;;;;;;;5062673;28;20968;-84
2021/11/23 11:45:25;;;;;;;5.22;3.67;;;;;;;;;;5061878;28;20900;-84
2021/11/23 11:47:55;;;;;;;5.70;3.78;;;;;;;;;;5063607;28;20426;-84
2021/11/23 11:50:28;;;;;;;4.15;3.58;;;;;;;;;;5061648;28;20410;-84
2021/11/23 11:53:09;;;;;;;5.10;3.80;;;;;;;;;;5062841;28;20398;-84
2021/11/23 11:55:47;;;;;;;5.35;4.30;;;;;;;;;;5063951;28;20874;-85
2021/11/23 11:58:45;;;;;;;5.28;3.85;;;;;;;;;;5060454;28;20909;-84
2021/11/23 12:01:29;;;;;;;5.55;4.22;;;;;;;;;;5063898;28;20967;-85
2021/11/23 12:04:09;;;;;;;6.20;3.58;;;;;;;;;;5061496;28;20406;-85
2021/11/23 12:07:06;;;;;;;6.13;4.68;;;;;;;;;;5063754;28;20414;-87
2021/11/23 12:09:34;;;;;;;6.13;3.90;;;;;;;;;;5050480;28;20431;-84
2021/11/23 12:12:29;;;;;;;3.90;3.40;;;;;;;;;;5052906;28;20920;-84
2021/11/23 12:15:08;;;;;;;5.65;3.50;;;;;;;;;;5058006;28;20955;-84
2021/11/23 12:17:49;;;;;;;4.78;3.80;;;;;;;;;;5059555;28;20416;-85
2021/11/23 12:20:28;;;;;;;5.23;4.00;;;;;;;;;;5057627;28;20432;-83
2021/11/23 12:23:12;;;;;;;6.07;4.05;;;;;;;;;;5052894;28;20420;-83
2021/11/23 12:25:50;;;;;;;5.73;4.20;;;;;;;;;;5062027;28;20865;-83
2021/11/23 12:28:17;;;;;;;5.30;4.03;;;;;;;;;;5063113;28;20425;-83
2021/11/23 12:30:45;;;;;;;6.70;4.25;;;;;;;;;;5062679;28;20479;-83
2021/11/23 12:33:12;;;;;;;6.20;4.35;;;;;;;;;;5055337;28;20409;-83
2021/11/23 12:35:40;;;;;;;6.22;4.20;;;;;;;;;;5060746;28;20428;-83
2021/11/23 12:38:07;;;;;;;5.32;4.38;;;;;;;;;;5063610;28;20410;-83
2021/11/23 12:40:34;;;;;;;5.47;4.10;;;;;;;;;;5058677;28;20422;-83
2021/11/23 12:43:04;;;;;;;5.80;4.20;;;;;;;;;;5055113;28;20407;-83
2021/11/23 12:45:40;;;;;;;6.65;4.47;;;;;;;;;;5050704;28;20402;-83
2021/11/23 12:48:10;;;;;;;6.32;4.30;;;;;;;;;;5053371;28;20456;-83
2021/11/23 12:50:39;;;;;;;8.38;4.45;;;;;;;;;;5045898;28;20421;-83
2021/11/23 12:53:08;;;;;;;5.15;4.38;;;;;;;;;;5046518;28;20447;-82
2021/11/23 12:55:34;;;;;;;5.60;4.18;;;;;;;;;;5054071;28;20459;-83
2021/11/23 12:58:02;;;;;;;6.00;4.07;;;;;;;;;;5059527;28;20812;-81
2021/11/23 13:00:29;;;;;;;5.70;4.35;;;;;;;;;;5058481;28;20405;-82
2021/11/23 13:02:56;;;;;;;6.05;4.30;;;;;;;;;;5050820;28;20408;-81
2021/11/23 13:05:27;;;;;;;4.97;4.10;;;;;;;;;;5050167;28;20406;-82
2021/11/23 13:07:56;;;;;;;5.57;3.90;;;;;;;;;;5054165;28;20414;-82
2021/11/23 13:10:24;;;;;;;7.30;4.45;;;;;;;;;;5049393;28;20406;-82
2021/11/23 13:12:54;;;;;;;6.53;3.90;;;;;;;;;;5052960;28;20411;-81
2021/11/23 13:15:23;;;;;;;5.68;3.67;;;;;;;;;;5053008;28;20415;-81
2021/11/23 13:17:55;;;;;;;6.13;3.95;;;;;;;;;;5047999;28;20747;-82
2021/11/23 13:20:42;;;;;;;5.80;4.00;;;;;;;;;;5055355;28;21480;-82
2021/11/23 13:23:20;;;;;;;5.82;4.10;;;;;;;;;;5044028;28;20417;-80
2021/11/23 13:25:48;;;;;;;5.32;4.10;;;;;;;;;;5053968;28;20519;-79
2021/11/23 13:28:16;;;;;;;7.22;3.95;;;;;;;;;;5049434;28;20502;-81
2021/11/23 13:30:48;;;;;;;5.78;4.30;;;;;;;;;;5048473;28;20421;-82
2021/11/23 13:33:18;;;;;;;5.85;4.10;;;;;;;;;;5052442;28;20810;-81
2021/11/23 13:35:56;;;;;;;5.90;4.43;;;;;;;;;;5044400;28;20405;-82
2021/11/23 13:38:31;;;;;;;4.97;4.15;;;;;;;;;;5052568;28;20412;-82
2021/11/23 13:40:59;;;;;;;4.70;4.15;;;;;;;;;;5050038;28;20540;-82
2021/11/23 13:43:26;;;;;;;5.35;3.95;;;;;;;;;;5053229;28;20500;-83
2021/11/23 13:46:01;;;;;;;4.38;3.50;;;;;;;;;;5051152;28;20410;-84
2021/11/23 13:48:28;;;;;;;4.20;3.80;;;;;;;;;;5051102;28;20427;-83
2021/11/23 13:51:01;;;;;;;4.65;4.05;;;;;;;;;;5048439;28;20871;-84
2021/11/23 13:53:28;;;;;;;4.20;3.70;;;;;;;;;;5049881;28;20430;-84
2021/11/23 13:56:11;;;;;;;4.95;3.88;;;;;;;;;;5051765;28;20895;-84
2021/11/23 13:58:48;;;;;;;3.35;3.05;;;;;;;;;;5055763;28;20485;-84
2021/11/23 14:01:15;;;;;;;3.67;3.20;;;;;;;;;;5051318;28;20441;-84
2021/11/23 14:03:42;;;;;;;3.90;3.20;;;;;;;;;;5054472;28;20414;-84
2021/11/23 14:06:12;;;;;;;3.92;2.53;;;;;;;;;;5049446;28;20428;-83
2021/11/23 14:08:38;;;;;;;4.03;2.45;;;;;;;;;;5048613;28;20430;-83
2021/11/23 14:11:07;;;;;;;3.35;2.60;;;;;;;;;;5051484;28;20398;-83
2021/11/23 14:13:36;;;;;;;3.03;2.72;;;;;;;;;;5051869;28;20461;-84
2021/11/23 14:16:07;;;;;;;4.00;2.90;;;;;;;;;;5056157;28;20409;-84
2021/11/23 14:18:36;;;;;;;3.50;2.67;;;;;;;;;;5056454;28;20449;-83
2021/11/23 14:21:07;;;;;;;4.37;3.13;;;;;;;;;;5055399;28;20406;-84
2021/11/23 14:23:42;;;;;;;4.65;3.17;;;;;;;;;;5052727;28;20756;-84
2021/11/23 14:26:14;;;;;;;4.90;3.13;;;;;;;;;;5055718;28;20471;-83
2021/11/23 14:28:44;;;;;;;4.83;2.70;;;;;;;;;;5054536;28;20413;-84
2021/11/23 14:31:13;;;;;;;4.70;3.40;;;;;;;;;;5054918;28;20405;-83
2021/11/23 14:33:40;;;;;;;7.05;3.65;;;;;;;;;;5060563;28;20412;-83
2021/11/23 14:36:07;;;;;;;3.95;2.97;;;;;;;;;;5060596;28;20767;-84
2021/11/23 14:38:34;;;;;;;4.00;3.03;;;;;;;;;;5063273;28;20402;-84
2021/11/23 14:41:03;;;;;;;6.38;3.38;;;;;;;;;;5063452;28;20401;-84
2021/11/23 14:43:30;;;;;;;4.72;3.25;;;;;;;;;;5059549;28;20403;-84
2021/11/23 14:45:58;;;;;;;4.80;3.30;;;;;;;;;;5053829;28;20398;-84
2021/11/23 14:48:24;;;;;;;5.68;3.25;;;;;;;;;;5054441;28;20411;-84
2021/11/23 14:50:51;;;;;;;5.32;3.10;;;;;;;;;;5057060;28;20406;-84